sensor_id;sensor_type;location;lat;lon;timestamp;pressure;altitude;pressure_sealevel;temperature;humidity
80934;BME280;70392;51.144;17.050;2023-09-30T00:00:08;100544.98;;;19.33;74.46
80934;BME280;70392;51.144;17.050;2023-09-30T00:02:44;100542.06;;;19.33;74.96
80934;BME280;70392;51.144;17.050;2023-09-30T00:05:01;100544.91;;;19.20;76.28
80934;BME280;70392;51.144;17.050;2023-09-30T00:07:16;100552.41;;;19.15;76.16
80934;BME280;70392;51.144;17.050;2023-09-30T00:10:15;100551.28;;;19.10;75.38
80934;BME280;70392;51.144;17.050;2023-09-30T00:12:32;100543.54;;;19.35;73.41
80934;BME280;70392;51.144;17.050;2023-09-30T00:14:49;100547.50;;;19.34;73.49
80934;BME280;70392;51.144;17.050;2023-09-30T00:17:05;100547.32;;;19.31;73.96
80934;BME280;70392;51.144;17.050;2023-09-30T00:19:24;100552.02;;;19.24;73.94
80934;BME280;70392;51.144;17.050;2023-09-30T00:21:46;100551.28;;;19.19;74.98
80934;BME280;70392;51.144;17.050;2023-09-30T00:24:04;100552.27;;;19.15;74.42
80934;BME280;70392;51.144;17.050;2023-09-30T00:26:22;100552.41;;;19.12;76.43
80934;BME280;70392;51.144;17.050;2023-09-30T00:28:42;100553.86;;;19.15;75.53
80934;BME280;70392;51.144;17.050;2023-09-30T00:30:58;100554.89;;;19.03;77.27
80934;BME280;70392;51.144;17.050;2023-09-30T00:33:25;100553.73;;;19.04;77.21
80934;BME280;70392;51.144;17.050;2023-09-30T00:35:41;100547.42;;;19.09;76.02
80934;BME280;70392;51.144;17.050;2023-09-30T00:37:58;100549.73;;;19.13;75.83
80934;BME280;70392;51.144;17.050;2023-09-30T00:40:14;100552.18;;;19.17;75.07
80934;BME280;70392;51.144;17.050;2023-09-30T00:42:31;100550.75;;;19.19;75.14
80934;BME280;70392;51.144;17.050;2023-09-30T00:44:47;100545.52;;;19.25;74.40
80934;BME280;70392;51.144;17.050;2023-09-30T00:47:06;100550.66;;;19.29;74.30
80934;BME280;70392;51.144;17.050;2023-09-30T00:49:25;100546.55;;;19.32;74.30
80934;BME280;70392;51.144;17.050;2023-09-30T00:51:42;100550.92;;;19.31;76.51
80934;BME280;70392;51.144;17.050;2023-09-30T00:53:59;100551.02;;;19.37;74.96
80934;BME280;70392;51.144;17.050;2023-09-30T00:56:20;100555.20;;;19.42;75.13
80934;BME280;70392;51.144;17.050;2023-09-30T00:58:38;100550.09;;;19.45;73.51
80934;BME280;70392;51.144;17.050;2023-09-30T01:00:56;100553.20;;;19.50;76.74
80934;BME280;70392;51.144;17.050;2023-09-30T01:03:13;100553.92;;;19.51;74.24
80934;BME280;70392;51.144;17.050;2023-09-30T01:05:31;100553.19;;;19.56;73.57
80934;BME280;70392;51.144;17.050;2023-09-30T01:07:48;100557.53;;;19.64;73.05
80934;BME280;70392;51.144;17.050;2023-09-30T01:10:08;100556.66;;;19.68;74.06
80934;BME280;70392;51.144;17.050;2023-09-30T01:12:24;100555.61;;;19.71;73.31
80934;BME280;70392;51.144;17.050;2023-09-30T01:14:49;100564.94;;;19.72;72.45
80934;BME280;70392;51.144;17.050;2023-09-30T01:17:09;100568.45;;;19.77;72.10
80934;BME280;70392;51.144;17.050;2023-09-30T01:19:28;100567.45;;;19.77;70.57
80934;BME280;70392;51.144;17.050;2023-09-30T01:21:49;100573.25;;;19.86;69.90
80934;BME280;70392;51.144;17.050;2023-09-30T01:24:05;100579.78;;;19.99;69.23
80934;BME280;70392;51.144;17.050;2023-09-30T01:26:22;100571.90;;;20.06;68.74
80934;BME280;70392;51.144;17.050;2023-09-30T01:28:39;100579.94;;;20.14;68.39
80934;BME280;70392;51.144;17.050;2023-09-30T01:30:56;100571.25;;;20.21;68.03
80934;BME280;70392;51.144;17.050;2023-09-30T01:33:19;100574.00;;;20.27;67.83
80934;BME280;70392;51.144;17.050;2023-09-30T01:35:35;100567.84;;;20.33;67.70
80934;BME280;70392;51.144;17.050;2023-09-30T01:38:00;100572.56;;;20.41;67.40
80934;BME280;70392;51.144;17.050;2023-09-30T01:40:18;100571.17;;;20.48;67.26
80934;BME280;70392;51.144;17.050;2023-09-30T01:42:38;100580.06;;;20.57;67.03
80934;BME280;70392;51.144;17.050;2023-09-30T01:44:54;100577.73;;;20.53;66.90
80934;BME280;70392;51.144;17.050;2023-09-30T01:47:13;100580.56;;;20.53;67.15
80934;BME280;70392;51.144;17.050;2023-09-30T01:49:34;100589.27;;;20.62;66.90
80934;BME280;70392;51.144;17.050;2023-09-30T01:51:51;100587.48;;;20.66;66.54
80934;BME280;70392;51.144;17.050;2023-09-30T01:54:16;100588.31;;;20.73;66.51
80934;BME280;70392;51.144;17.050;2023-09-30T01:56:34;100588.19;;;20.69;66.57
80934;BME280;70392;51.144;17.050;2023-09-30T01:58:50;100582.44;;;20.70;66.49
80934;BME280;70392;51.144;17.050;2023-09-30T02:01:06;100585.38;;;20.71;66.53
80934;BME280;70392;51.144;17.050;2023-09-30T02:03:23;100585.75;;;20.71;66.62
80934;BME280;70392;51.144;17.050;2023-09-30T02:05:42;100584.55;;;20.68;66.73
80934;BME280;70392;51.144;17.050;2023-09-30T02:07:58;100588.12;;;20.77;66.50
80934;BME280;70392;51.144;17.050;2023-09-30T02:10:16;100586.11;;;20.68;67.00
80934;BME280;70392;51.144;17.050;2023-09-30T02:12:34;100584.09;;;20.62;67.74
80934;BME280;70392;51.144;17.050;2023-09-30T02:15:03;100586.98;;;20.69;67.51
80934;BME280;70392;51.144;17.050;2023-09-30T02:17:20;100590.08;;;20.75;67.21
80934;BME280;70392;51.144;17.050;2023-09-30T02:19:38;100594.16;;;20.68;67.43
80934;BME280;70392;51.144;17.050;2023-09-30T02:21:56;100591.42;;;20.75;67.26
80934;BME280;70392;51.144;17.050;2023-09-30T02:24:12;100581.04;;;20.81;67.17
80934;BME280;70392;51.144;17.050;2023-09-30T02:26:29;100590.69;;;20.78;67.19
80934;BME280;70392;51.144;17.050;2023-09-30T02:28:45;100595.09;;;20.83;67.03
80934;BME280;70392;51.144;17.050;2023-09-30T02:31:02;100588.90;;;20.90;66.77
80934;BME280;70392;51.144;17.050;2023-09-30T02:33:18;100590.17;;;20.75;67.48
80934;BME280;70392;51.144;17.050;2023-09-30T02:35:45;100591.03;;;20.75;67.50
80934;BME280;70392;51.144;17.050;2023-09-30T02:38:03;100586.81;;;20.70;67.83
80934;BME280;70392;51.144;17.050;2023-09-30T02:40:20;100594.62;;;20.77;67.72
80934;BME280;70392;51.144;17.050;2023-09-30T02:42:43;100598.28;;;20.84;67.36
80934;BME280;70392;51.144;17.050;2023-09-30T02:45:02;100596.81;;;20.86;67.37
80934;BME280;70392;51.144;17.050;2023-09-30T02:47:19;100594.05;;;20.85;67.18
80934;BME280;70392;51.144;17.050;2023-09-30T02:49:36;100602.67;;;20.82;67.46
80934;BME280;70392;51.144;17.050;2023-09-30T02:51:56;100609.56;;;20.53;68.37
80934;BME280;70392;51.144;17.050;2023-09-30T02:54:16;100611.16;;;20.68;67.92
80934;BME280;70392;51.144;17.050;2023-09-30T02:56:32;100610.52;;;20.66;67.86
80934;BME280;70392;51.144;17.050;2023-09-30T02:58:49;100613.29;;;20.66;67.83
80934;BME280;70392;51.144;17.050;2023-09-30T03:01:06;100609.10;;;20.69;67.87
80934;BME280;70392;51.144;17.050;2023-09-30T03:03:31;100615.32;;;20.66;68.10
80934;BME280;70392;51.144;17.050;2023-09-30T03:05:50;100621.84;;;20.68;67.90
80934;BME280;70392;51.144;17.050;2023-09-30T03:08:08;100623.95;;;20.65;68.05
80934;BME280;70392;51.144;17.050;2023-09-30T03:10:24;100621.98;;;20.63;67.80
80934;BME280;70392;51.144;17.050;2023-09-30T03:12:46;100621.91;;;20.66;68.02
80934;BME280;70392;51.144;17.050;2023-09-30T03:15:04;100618.09;;;20.63;68.06
80934;BME280;70392;51.144;17.050;2023-09-30T03:17:21;100617.51;;;20.61;68.24
80934;BME280;70392;51.144;17.050;2023-09-30T03:19:39;100619.74;;;20.56;68.22
80934;BME280;70392;51.144;17.050;2023-09-30T03:21:55;100614.86;;;20.48;68.61
80934;BME280;70392;51.144;17.050;2023-09-30T03:24:12;100614.88;;;20.38;69.03
80934;BME280;70392;51.144;17.050;2023-09-30T03:26:31;100611.76;;;20.32;69.22
80934;BME280;70392;51.144;17.050;2023-09-30T03:28:50;100627.50;;;20.14;69.85
80934;BME280;70392;51.144;17.050;2023-09-30T03:31:06;100628.64;;;20.04;70.34
80934;BME280;70392;51.144;17.050;2023-09-30T03:33:23;100637.57;;;20.03;70.35
80934;BME280;70392;51.144;17.050;2023-09-30T03:35:42;100639.47;;;20.17;69.73
80934;BME280;70392;51.144;17.050;2023-09-30T03:37:58;100640.76;;;20.14;69.90
80934;BME280;70392;51.144;17.050;2023-09-30T03:40:19;100638.41;;;20.17;69.71
80934;BME280;70392;51.144;17.050;2023-09-30T03:42:48;100643.20;;;20.27;69.33
80934;BME280;70392;51.144;17.050;2023-09-30T03:45:08;100646.38;;;20.30;69.22
80934;BME280;70392;51.144;17.050;2023-09-30T03:47:24;100646.76;;;20.23;69.42
80934;BME280;70392;51.144;17.050;2023-09-30T03:49:48;100651.97;;;20.20;69.21
80934;BME280;70392;51.144;17.050;2023-09-30T03:52:06;100662.77;;;20.07;70.26
80934;BME280;70392;51.144;17.050;2023-09-30T03:54:24;100664.49;;;20.10;70.12
80934;BME280;70392;51.144;17.050;2023-09-30T03:56:41;100664.70;;;20.00;70.62
80934;BME280;70392;51.144;17.050;2023-09-30T03:58:58;100666.18;;;20.04;70.25
80934;BME280;70392;51.144;17.050;2023-09-30T04:01:17;100665.80;;;19.85;71.20
80934;BME280;70392;51.144;17.050;2023-09-30T04:03:33;100668.22;;;19.96;70.93
80934;BME280;70392;51.144;17.050;2023-09-30T04:06:10;100669.61;;;19.84;71.53
80934;BME280;70392;51.144;17.050;2023-09-30T04:08:29;100668.52;;;19.66;72.23
80934;BME280;70392;51.144;17.050;2023-09-30T04:10:49;100672.25;;;19.63;72.35
80934;BME280;70392;51.144;17.050;2023-09-30T04:13:05;100681.66;;;19.67;72.20
80934;BME280;70392;51.144;17.050;2023-09-30T04:15:23;100679.15;;;19.64;72.22
80934;BME280;70392;51.144;17.050;2023-09-30T04:17:54;100693.00;;;19.58;72.89
80934;BME280;70392;51.144;17.050;2023-09-30T04:20:16;100692.56;;;19.63;72.60
80934;BME280;70392;51.144;17.050;2023-09-30T04:22:33;100699.22;;;19.68;72.42
80934;BME280;70392;51.144;17.050;2023-09-30T04:24:50;100694.20;;;19.39;73.90
80934;BME280;70392;51.144;17.050;2023-09-30T04:27:27;100695.61;;;19.52;73.44
80934;BME280;70392;51.144;17.050;2023-09-30T04:29:44;100688.77;;;19.47;73.70
80934;BME280;70392;51.144;17.050;2023-09-30T04:32:07;100695.88;;;19.39;74.15
80934;BME280;70392;51.144;17.050;2023-09-30T04:34:24;100695.92;;;19.48;73.92
80934;BME280;70392;51.144;17.050;2023-09-30T04:36:44;100702.86;;;19.57;73.40
80934;BME280;70392;51.144;17.050;2023-09-30T04:39:03;100713.09;;;19.60;73.33
80934;BME280;70392;51.144;17.050;2023-09-30T04:41:21;100716.48;;;19.53;73.64
80934;BME280;70392;51.144;17.050;2023-09-30T04:43:40;100699.47;;;19.57;73.47
80934;BME280;70392;51.144;17.050;2023-09-30T04:45:58;100708.37;;;19.30;74.92
80934;BME280;70392;51.144;17.050;2023-09-30T04:48:15;100714.33;;;19.42;74.22
80934;BME280;70392;51.144;17.050;2023-09-30T04:50:42;100729.42;;;19.46;74.20
80934;BME280;70392;51.144;17.050;2023-09-30T04:52:58;100736.81;;;19.43;74.35
80934;BME280;70392;51.144;17.050;2023-09-30T04:55:22;100736.98;;;19.33;74.87
80934;BME280;70392;51.144;17.050;2023-09-30T04:57:39;100732.30;;;19.37;74.55
80934;BME280;70392;51.144;17.050;2023-09-30T05:00:09;100733.34;;;19.50;74.00
80934;BME280;70392;51.144;17.050;2023-09-30T05:02:29;100738.78;;;19.26;74.95
80934;BME280;70392;51.144;17.050;2023-09-30T05:04:45;100742.96;;;19.32;74.67
80934;BME280;70392;51.144;17.050;2023-09-30T05:07:01;100744.88;;;19.41;74.37
80934;BME280;70392;51.144;17.050;2023-09-30T05:09:28;100747.90;;;19.48;74.05
80934;BME280;70392;51.144;17.050;2023-09-30T05:11:44;100748.01;;;19.61;73.39
80934;BME280;70392;51.144;17.050;2023-09-30T05:14:01;100757.84;;;19.59;73.47
80934;BME280;70392;51.144;17.050;2023-09-30T05:16:18;100760.65;;;19.70;72.59
80934;BME280;70392;51.144;17.050;2023-09-30T05:18:34;100771.71;;;19.55;73.85
80934;BME280;70392;51.144;17.050;2023-09-30T05:20:51;100771.34;;;19.56;73.69
80934;BME280;70392;51.144;17.050;2023-09-30T05:23:07;100775.48;;;19.59;73.59
80934;BME280;70392;51.144;17.050;2023-09-30T05:25:35;100777.79;;;19.62;73.64
80934;BME280;70392;51.144;17.050;2023-09-30T05:27:51;100774.48;;;19.58;73.66
80934;BME280;70392;51.144;17.050;2023-09-30T05:30:08;100777.96;;;19.58;73.72
80934;BME280;70392;51.144;17.050;2023-09-30T05:32:27;100781.38;;;19.54;74.10
80934;BME280;70392;51.144;17.050;2023-09-30T05:34:44;100777.54;;;19.61;73.67
80934;BME280;70392;51.144;17.050;2023-09-30T05:37:01;100782.72;;;19.76;73.16
80934;BME280;70392;51.144;17.050;2023-09-30T05:39:20;100792.47;;;19.61;73.73
80934;BME280;70392;51.144;17.050;2023-09-30T05:41:47;100793.68;;;19.57;73.94
80934;BME280;70392;51.144;17.050;2023-09-30T05:44:04;100794.64;;;19.51;74.25
80934;BME280;70392;51.144;17.050;2023-09-30T05:46:21;100805.17;;;19.46;74.42
80934;BME280;70392;51.144;17.050;2023-09-30T05:48:40;100811.59;;;19.52;74.16
80934;BME280;70392;51.144;17.050;2023-09-30T05:50:57;100813.30;;;19.53;74.28
80934;BME280;70392;51.144;17.050;2023-09-30T05:53:14;100817.53;;;19.58;73.99
80934;BME280;70392;51.144;17.050;2023-09-30T05:55:30;100818.59;;;19.59;73.98
80934;BME280;70392;51.144;17.050;2023-09-30T05:57:49;100820.10;;;19.51;74.55
80934;BME280;70392;51.144;17.050;2023-09-30T06:00:29;100820.66;;;19.59;73.97
80934;BME280;70392;51.144;17.050;2023-09-30T06:03:11;100825.74;;;19.50;74.59
80934;BME280;70392;51.144;17.050;2023-09-30T06:05:30;100819.95;;;19.62;74.14
80934;BME280;70392;51.144;17.050;2023-09-30T06:07:47;100826.38;;;19.57;74.25
80934;BME280;70392;51.144;17.050;2023-09-30T06:10:10;100824.36;;;19.36;75.08
80934;BME280;70392;51.144;17.050;2023-09-30T06:13:02;100839.10;;;19.24;75.44
80934;BME280;70392;51.144;17.050;2023-09-30T06:15:22;100845.11;;;19.37;74.65
80934;BME280;70392;51.144;17.050;2023-09-30T06:17:50;100844.23;;;19.24;74.01
80934;BME280;70392;51.144;17.050;2023-09-30T06:20:16;100853.45;;;18.91;73.19
80934;BME280;70392;51.144;17.050;2023-09-30T06:22:54;100853.78;;;18.69;73.13
80934;BME280;70392;51.144;17.050;2023-09-30T06:25:11;100859.70;;;18.66;72.32
80934;BME280;70392;51.144;17.050;2023-09-30T06:27:27;100855.53;;;18.46;72.14
80934;BME280;70392;51.144;17.050;2023-09-30T06:29:44;100870.85;;;18.45;71.91
80934;BME280;70392;51.144;17.050;2023-09-30T06:32:00;100881.26;;;18.54;71.42
80934;BME280;70392;51.144;17.050;2023-09-30T06:34:17;100881.60;;;18.33;71.36
80934;BME280;70392;51.144;17.050;2023-09-30T06:36:53;100891.17;;;18.13;71.06
80934;BME280;70392;51.144;17.050;2023-09-30T06:39:10;100895.92;;;18.27;70.94
80934;BME280;70392;51.144;17.050;2023-09-30T06:41:30;100899.41;;;18.27;70.98
80934;BME280;70392;51.144;17.050;2023-09-30T06:43:47;100905.16;;;18.25;70.83
80934;BME280;70392;51.144;17.050;2023-09-30T06:46:10;100909.26;;;18.18;71.43
80934;BME280;70392;51.144;17.050;2023-09-30T06:48:27;100915.04;;;18.42;70.63
80934;BME280;70392;51.144;17.050;2023-09-30T06:50:49;100919.18;;;18.42;70.58
80934;BME280;70392;51.144;17.050;2023-09-30T06:53:06;100927.76;;;18.52;70.11
80934;BME280;70392;51.144;17.050;2023-09-30T06:55:27;100930.34;;;18.58;69.86
80934;BME280;70392;51.144;17.050;2023-09-30T06:57:45;100933.87;;;18.61;70.15
80934;BME280;70392;51.144;17.050;2023-09-30T07:00:13;100928.90;;;18.54;70.46
80934;BME280;70392;51.144;17.050;2023-09-30T07:02:29;100938.13;;;18.56;70.78
80934;BME280;70392;51.144;17.050;2023-09-30T07:04:45;100942.26;;;18.61;71.08
80934;BME280;70392;51.144;17.050;2023-09-30T07:07:21;100945.66;;;18.46;71.63
80934;BME280;70392;51.144;17.050;2023-09-30T07:09:38;100941.48;;;18.27;72.29
80934;BME280;70392;51.144;17.050;2023-09-30T07:11:54;100947.72;;;18.24;72.80
80934;BME280;70392;51.144;17.050;2023-09-30T07:14:10;100953.31;;;18.09;72.86
80934;BME280;70392;51.144;17.050;2023-09-30T07:16:27;100966.09;;;18.16;72.23
80934;BME280;70392;51.144;17.050;2023-09-30T07:18:43;100954.20;;;18.05;72.24
80934;BME280;70392;51.144;17.050;2023-09-30T07:21:00;100968.40;;;17.98;72.65
80934;BME280;70392;51.144;17.050;2023-09-30T07:23:31;100966.05;;;18.07;72.04
80934;BME280;70392;51.144;17.050;2023-09-30T07:25:47;100969.86;;;18.03;72.17
80934;BME280;70392;51.144;17.050;2023-09-30T07:28:05;100983.14;;;18.06;71.97
80934;BME280;70392;51.144;17.050;2023-09-30T07:30:27;100983.33;;;17.99;72.36
80934;BME280;70392;51.144;17.050;2023-09-30T07:32:44;101006.90;;;18.00;72.62
80934;BME280;70392;51.144;17.050;2023-09-30T07:35:01;101011.95;;;18.09;72.08
80934;BME280;70392;51.144;17.050;2023-09-30T07:37:18;101012.07;;;18.05;72.18
80934;BME280;70392;51.144;17.050;2023-09-30T07:39:36;101013.05;;;17.92;72.44
80934;BME280;70392;51.144;17.050;2023-09-30T07:41:52;101022.16;;;17.73;71.87
80934;BME280;70392;51.144;17.050;2023-09-30T07:44:12;101028.71;;;17.69;70.98
80934;BME280;70392;51.144;17.050;2023-09-30T07:46:30;101016.09;;;17.73;70.06
80934;BME280;70392;51.144;17.050;2023-09-30T07:48:47;101019.82;;;17.63;70.21
80934;BME280;70392;51.144;17.050;2023-09-30T07:51:04;101027.58;;;17.73;69.51
80934;BME280;70392;51.144;17.050;2023-09-30T07:53:23;101022.80;;;17.69;67.79
80934;BME280;70392;51.144;17.050;2023-09-30T07:55:39;101023.59;;;17.37;66.86
80934;BME280;70392;51.144;17.050;2023-09-30T07:57:57;101024.16;;;17.44;65.79
80934;BME280;70392;51.144;17.050;2023-09-30T08:00:17;101026.84;;;17.72;64.61
80934;BME280;70392;51.144;17.050;2023-09-30T08:02:33;101016.64;;;17.62;64.29
80934;BME280;70392;51.144;17.050;2023-09-30T08:04:49;101010.14;;;17.74;63.99
80934;BME280;70392;51.144;17.050;2023-09-30T08:07:09;101021.88;;;18.06;62.78
80934;BME280;70392;51.144;17.050;2023-09-30T08:09:27;101021.12;;;18.09;62.63
80934;BME280;70392;51.144;17.050;2023-09-30T08:11:56;101035.85;;;18.52;61.21
80934;BME280;70392;51.144;17.050;2023-09-30T08:14:33;101032.88;;;18.12;61.37
80934;BME280;70392;51.144;17.050;2023-09-30T08:16:49;101043.68;;;18.45;61.05
80934;BME280;70392;51.144;17.050;2023-09-30T08:19:09;101047.29;;;18.89;59.81
80934;BME280;70392;51.144;17.050;2023-09-30T08:21:26;101047.70;;;19.02;59.38
80934;BME280;70392;51.144;17.050;2023-09-30T08:23:51;101049.78;;;18.93;59.41
80934;BME280;70392;51.144;17.050;2023-09-30T08:26:07;101052.78;;;18.30;61.30
80934;BME280;70392;51.144;17.050;2023-09-30T08:28:24;101052.38;;;18.22;61.99
80934;BME280;70392;51.144;17.050;2023-09-30T08:31:03;101051.02;;;18.23;62.33
80934;BME280;70392;51.144;17.050;2023-09-30T08:33:21;101048.26;;;18.22;62.88
80934;BME280;70392;51.144;17.050;2023-09-30T08:35:46;101061.22;;;18.63;61.50
80934;BME280;70392;51.144;17.050;2023-09-30T08:38:04;101061.23;;;18.79;60.49
80934;BME280;70392;51.144;17.050;2023-09-30T08:40:21;101077.36;;;18.61;60.67
80934;BME280;70392;51.144;17.050;2023-09-30T08:42:39;101077.02;;;18.95;59.67
80934;BME280;70392;51.144;17.050;2023-09-30T08:44:57;101083.55;;;18.82;60.43
80934;BME280;70392;51.144;17.050;2023-09-30T08:47:14;101090.75;;;18.81;59.93
80934;BME280;70392;51.144;17.050;2023-09-30T08:49:39;101083.59;;;18.68;60.55
80934;BME280;70392;51.144;17.050;2023-09-30T08:52:06;101095.83;;;19.25;59.23
80934;BME280;70392;51.144;17.050;2023-09-30T08:54:23;101093.88;;;19.37;58.43
80934;BME280;70392;51.144;17.050;2023-09-30T08:56:44;101102.66;;;19.02;58.50
80934;BME280;70392;51.144;17.050;2023-09-30T08:59:11;101102.81;;;18.96;59.13
80934;BME280;70392;51.144;17.050;2023-09-30T09:01:30;101111.58;;;18.87;58.85
80934;BME280;70392;51.144;17.050;2023-09-30T09:03:52;101109.81;;;18.56;59.02
80934;BME280;70392;51.144;17.050;2023-09-30T09:06:12;101113.12;;;18.91;58.37
80934;BME280;70392;51.144;17.050;2023-09-30T09:08:28;101108.83;;;19.36;57.34
80934;BME280;70392;51.144;17.050;2023-09-30T09:13:12;101121.33;;;19.33;56.33
80934;BME280;70392;51.144;17.050;2023-09-30T09:15:28;101131.69;;;19.30;56.12
80934;BME280;70392;51.144;17.050;2023-09-30T09:17:45;101141.67;;;19.60;55.12
80934;BME280;70392;51.144;17.050;2023-09-30T09:20:06;101145.78;;;19.51;54.81
80934;BME280;70392;51.144;17.050;2023-09-30T09:22:22;101129.88;;;19.41;54.76
80934;BME280;70392;51.144;17.050;2023-09-30T09:24:43;101124.16;;;19.22;55.32
80934;BME280;70392;51.144;17.050;2023-09-30T09:27:08;101139.05;;;18.87;54.59
80934;BME280;70392;51.144;17.050;2023-09-30T09:29:27;101134.52;;;18.93;54.87
80934;BME280;70392;51.144;17.050;2023-09-30T09:31:48;101129.09;;;19.05;53.50
80934;BME280;70392;51.144;17.050;2023-09-30T09:34:14;101133.02;;;18.86;54.10
80934;BME280;70392;51.144;17.050;2023-09-30T09:36:42;101126.36;;;19.34;53.10
80934;BME280;70392;51.144;17.050;2023-09-30T09:38:59;101126.47;;;19.62;52.43
80934;BME280;70392;51.144;17.050;2023-09-30T09:41:50;101125.82;;;20.24;51.54
80934;BME280;70392;51.144;17.050;2023-09-30T09:44:10;101131.63;;;20.69;50.58
80934;BME280;70392;51.144;17.050;2023-09-30T09:46:27;101137.49;;;20.74;49.42
80934;BME280;70392;51.144;17.050;2023-09-30T09:48:48;101134.47;;;20.39;50.22
80934;BME280;70392;51.144;17.050;2023-09-30T09:51:09;101139.74;;;20.01;51.63
80934;BME280;70392;51.144;17.050;2023-09-30T09:53:31;101141.80;;;20.21;51.03
80934;BME280;70392;51.144;17.050;2023-09-30T09:55:53;101148.79;;;20.08;50.38
80934;BME280;70392;51.144;17.050;2023-09-30T09:58:10;101132.69;;;19.88;50.51
80934;BME280;70392;51.144;17.050;2023-09-30T10:00:27;101129.76;;;20.17;49.40
80934;BME280;70392;51.144;17.050;2023-09-30T10:02:48;101129.39;;;19.99;49.30
80934;BME280;70392;51.144;17.050;2023-09-30T10:05:07;101126.53;;;19.62;50.27
80934;BME280;70392;51.144;17.050;2023-09-30T10:07:28;101140.72;;;19.40;50.85
80934;BME280;70392;51.144;17.050;2023-09-30T10:09:49;101126.47;;;20.09;49.89
80934;BME280;70392;51.144;17.050;2023-09-30T10:12:09;101126.67;;;20.45;48.50
80934;BME280;70392;51.144;17.050;2023-09-30T10:14:33;101120.86;;;20.82;48.20
80934;BME280;70392;51.144;17.050;2023-09-30T10:16:51;101120.17;;;20.94;47.83
80934;BME280;70392;51.144;17.050;2023-09-30T10:19:11;101126.33;;;21.28;46.25
80934;BME280;70392;51.144;17.050;2023-09-30T10:21:37;101128.98;;;21.12;45.60
80934;BME280;70392;51.144;17.050;2023-09-30T10:26:36;101129.39;;;21.26;45.00
80934;BME280;70392;51.144;17.050;2023-09-30T10:29:09;101134.31;;;21.50;44.49
80934;BME280;70392;51.144;17.050;2023-09-30T10:31:27;101126.33;;;21.15;43.96
80934;BME280;70392;51.144;17.050;2023-09-30T10:38:57;101137.55;;;21.68;42.05
80934;BME280;70392;51.144;17.050;2023-09-30T10:43:55;101138.77;;;21.80;42.10
80934;BME280;70392;51.144;17.050;2023-09-30T10:48:38;101151.94;;;21.07;42.88
80934;BME280;70392;51.144;17.050;2023-09-30T10:51:09;101147.39;;;20.70;43.28
80934;BME280;70392;51.144;17.050;2023-09-30T10:53:27;101146.92;;;21.28;43.95
80934;BME280;70392;51.144;17.050;2023-09-30T10:56:02;101145.11;;;21.33;43.91
80934;BME280;70392;51.144;17.050;2023-09-30T10:58:18;101143.86;;;21.37;43.25
80934;BME280;70392;51.144;17.050;2023-09-30T11:00:34;101139.94;;;21.71;42.19
80934;BME280;70392;51.144;17.050;2023-09-30T11:02:52;101152.17;;;21.20;42.13
80934;BME280;70392;51.144;17.050;2023-09-30T11:05:09;101151.92;;;20.85;42.95
80934;BME280;70392;51.144;17.050;2023-09-30T11:07:29;101151.38;;;21.44;42.59
80934;BME280;70392;51.144;17.050;2023-09-30T11:09:47;101145.77;;;21.07;42.65
80934;BME280;70392;51.144;17.050;2023-09-30T11:12:15;101162.88;;;21.49;42.08
80934;BME280;70392;51.144;17.050;2023-09-30T11:14:32;101163.84;;;21.70;40.53
80934;BME280;70392;51.144;17.050;2023-09-30T11:16:50;101165.21;;;21.59;40.36
80934;BME280;70392;51.144;17.050;2023-09-30T11:19:22;101163.19;;;21.25;41.80
80934;BME280;70392;51.144;17.050;2023-09-30T11:21:40;101161.42;;;21.05;41.89
80934;BME280;70392;51.144;17.050;2023-09-30T11:23:56;101163.86;;;20.88;42.85
80934;BME280;70392;51.144;17.050;2023-09-30T11:26:35;101166.06;;;21.05;43.63
80934;BME280;70392;51.144;17.050;2023-09-30T11:28:53;101157.55;;;20.79;44.47
80934;BME280;70392;51.144;17.050;2023-09-30T11:31:12;101159.23;;;20.70;45.07
80934;BME280;70392;51.144;17.050;2023-09-30T11:33:30;101156.57;;;21.38;44.39
80934;BME280;70392;51.144;17.050;2023-09-30T11:35:59;101161.05;;;21.64;43.51
80934;BME280;70392;51.144;17.050;2023-09-30T11:38:37;101165.20;;;21.37;44.05
80934;BME280;70392;51.144;17.050;2023-09-30T11:41:05;101154.63;;;21.83;43.14
80934;BME280;70392;51.144;17.050;2023-09-30T11:46:14;101153.46;;;21.00;44.02
80934;BME280;70392;51.144;17.050;2023-09-30T11:48:30;101149.47;;;20.38;45.08
80934;BME280;70392;51.144;17.050;2023-09-30T11:50:48;101155.85;;;21.27;44.37
80934;BME280;70392;51.144;17.050;2023-09-30T11:53:17;101163.68;;;21.69;43.47
80934;BME280;70392;51.144;17.050;2023-09-30T11:55:37;101151.77;;;20.93;43.99
80934;BME280;70392;51.144;17.050;2023-09-30T11:57:54;101157.45;;;21.29;44.10
80934;BME280;70392;51.144;17.050;2023-09-30T12:00:14;101154.92;;;22.25;42.32
80934;BME280;70392;51.144;17.050;2023-09-30T12:02:30;101168.13;;;22.08;42.40
80934;BME280;70392;51.144;17.050;2023-09-30T12:04:47;101154.41;;;22.84;41.15
80934;BME280;70392;51.144;17.050;2023-09-30T12:07:07;101158.12;;;24.02;39.21
80934;BME280;70392;51.144;17.050;2023-09-30T12:09:27;101159.12;;;23.80;39.43
80934;BME280;70392;51.144;17.050;2023-09-30T12:11:44;101165.41;;;24.16;38.11
80934;BME280;70392;51.144;17.050;2023-09-30T12:14:01;101157.21;;;23.89;39.01
80934;BME280;70392;51.144;17.050;2023-09-30T12:16:38;101153.23;;;24.65;38.41
80934;BME280;70392;51.144;17.050;2023-09-30T12:18:55;101154.20;;;23.39;39.29
80934;BME280;70392;51.144;17.050;2023-09-30T12:21:20;101148.94;;;23.21;39.49